sensor_id;sensor_type;location;lat;lon;timestamp;temperature;humidity
21387;DHT22;10854;45.922;6.716;2024-03-02T00:02:11;3.80;99.90
21387;DHT22;10854;45.922;6.716;2024-03-02T00:04:39;3.80;99.90
21387;DHT22;10854;45.922;6.716;2024-03-02T00:07:14;3.80;99.90
21387;DHT22;10854;45.922;6.716;2024-03-02T00:09:44;3.70;99.90
21387;DHT22;10854;45.922;6.716;2024-03-02T00:12:15;3.80;99.90
21387;DHT22;10854;45.922;6.716;2024-03-02T00:14:46;3.80;99.90
21387;DHT22;10854;45.922;6.716;2024-03-02T00:17:24;3.80;99.90
21387;DHT22;10854;45.922;6.716;2024-03-02T00:19:56;3.90;99.90
21387;DHT22;10854;45.922;6.716;2024-03-02T00:22:24;4.00;99.90
21387;DHT22;10854;45.922;6.716;2024-03-02T00:24:54;4.10;99.90
21387;DHT22;10854;45.922;6.716;2024-03-02T00:27:22;4.10;99.90
21387;DHT22;10854;45.922;6.716;2024-03-02T00:29:53;4.10;99.90
21387;DHT22;10854;45.922;6.716;2024-03-02T00:32:21;4.00;99.90
21387;DHT22;10854;45.922;6.716;2024-03-02T00:34:50;3.80;99.90
21387;DHT22;10854;45.922;6.716;2024-03-02T00:37:18;3.60;99.90
21387;DHT22;10854;45.922;6.716;2024-03-02T00:39:49;3.60;99.90
21387;DHT22;10854;45.922;6.716;2024-03-02T00:42:18;3.60;99.90
21387;DHT22;10854;45.922;6.716;2024-03-02T00:44:46;3.70;99.90
21387;DHT22;10854;45.922;6.716;2024-03-02T00:47:16;3.80;99.90
21387;DHT22;10854;45.922;6.716;2024-03-02T00:49:46;3.80;99.90
21387;DHT22;10854;45.922;6.716;2024-03-02T00:52:16;3.80;99.90
21387;DHT22;10854;45.922;6.716;2024-03-02T00:54:44;3.80;99.90
21387;DHT22;10854;45.922;6.716;2024-03-02T00:57:14;3.90;99.90
21387;DHT22;10854;45.922;6.716;2024-03-02T00:59:43;3.90;99.90
21387;DHT22;10854;45.922;6.716;2024-03-02T01:02:11;3.80;99.90
21387;DHT22;10854;45.922;6.716;2024-03-02T01:04:40;3.80;99.90
21387;DHT22;10854;45.922;6.716;2024-03-02T01:07:09;3.80;99.90
21387;DHT22;10854;45.922;6.716;2024-03-02T01:09:38;3.80;99.90
21387;DHT22;10854;45.922;6.716;2024-03-02T01:12:06;3.90;99.90
21387;DHT22;10854;45.922;6.716;2024-03-02T01:14:35;3.90;99.90
21387;DHT22;10854;45.922;6.716;2024-03-02T01:17:03;3.90;99.90
21387;DHT22;10854;45.922;6.716;2024-03-02T01:19:32;4.00;99.90
21387;DHT22;10854;45.922;6.716;2024-03-02T01:22:01;3.90;99.90
21387;DHT22;10854;45.922;6.716;2024-03-02T01:24:30;3.80;99.90
21387;DHT22;10854;45.922;6.716;2024-03-02T01:26:58;3.70;99.90
21387;DHT22;10854;45.922;6.716;2024-03-02T01:29:27;3.60;99.90
21387;DHT22;10854;45.922;6.716;2024-03-02T01:31:56;3.50;99.90
21387;DHT22;10854;45.922;6.716;2024-03-02T01:34:25;3.50;99.90
21387;DHT22;10854;45.922;6.716;2024-03-02T01:36:55;3.50;99.90
21387;DHT22;10854;45.922;6.716;2024-03-02T01:39:23;3.60;99.90
21387;DHT22;10854;45.922;6.716;2024-03-02T01:41:52;3.60;99.90
21387;DHT22;10854;45.922;6.716;2024-03-02T01:44:22;3.70;99.90
21387;DHT22;10854;45.922;6.716;2024-03-02T01:46:51;3.70;99.90
21387;DHT22;10854;45.922;6.716;2024-03-02T01:49:19;3.60;99.90
21387;DHT22;10854;45.922;6.716;2024-03-02T01:51:48;3.50;99.90
21387;DHT22;10854;45.922;6.716;2024-03-02T01:54:16;3.40;99.90
21387;DHT22;10854;45.922;6.716;2024-03-02T01:56:45;3.30;99.90
21387;DHT22;10854;45.922;6.716;2024-03-02T01:59:15;3.20;99.90
21387;DHT22;10854;45.922;6.716;2024-03-02T02:01:44;3.10;99.90
21387;DHT22;10854;45.922;6.716;2024-03-02T02:04:15;3.10;99.90
21387;DHT22;10854;45.922;6.716;2024-03-02T02:06:46;3.20;99.90
21387;DHT22;10854;45.922;6.716;2024-03-02T02:09:15;3.30;99.90
21387;DHT22;10854;45.922;6.716;2024-03-02T02:11:43;3.40;99.90
21387;DHT22;10854;45.922;6.716;2024-03-02T02:14:12;3.50;99.90
21387;DHT22;10854;45.922;6.716;2024-03-02T02:16:40;3.60;99.90
21387;DHT22;10854;45.922;6.716;2024-03-02T02:19:09;3.60;99.90
21387;DHT22;10854;45.922;6.716;2024-03-02T02:21:37;3.60;99.90
21387;DHT22;10854;45.922;6.716;2024-03-02T02:24:06;3.70;99.90
21387;DHT22;10854;45.922;6.716;2024-03-02T02:26:34;3.60;99.90
21387;DHT22;10854;45.922;6.716;2024-03-02T02:29:03;3.50;99.90
21387;DHT22;10854;45.922;6.716;2024-03-02T02:31:41;3.40;99.90
21387;DHT22;10854;45.922;6.716;2024-03-02T02:34:10;3.30;99.90
21387;DHT22;10854;45.922;6.716;2024-03-02T02:36:39;3.30;99.90
21387;DHT22;10854;45.922;6.716;2024-03-02T02:39:12;3.30;99.90
21387;DHT22;10854;45.922;6.716;2024-03-02T02:41:41;3.30;99.90
21387;DHT22;10854;45.922;6.716;2024-03-02T02:44:10;3.30;99.90
21387;DHT22;10854;45.922;6.716;2024-03-02T02:46:42;3.30;99.90
21387;DHT22;10854;45.922;6.716;2024-03-02T02:49:11;3.30;99.90
21387;DHT22;10854;45.922;6.716;2024-03-02T02:51:40;3.20;99.90
21387;DHT22;10854;45.922;6.716;2024-03-02T02:54:08;3.20;99.90
21387;DHT22;10854;45.922;6.716;2024-03-02T02:56:37;3.20;99.90
21387;DHT22;10854;45.922;6.716;2024-03-02T02:59:05;3.20;99.90
21387;DHT22;10854;45.922;6.716;2024-03-02T03:01:34;3.30;99.90
21387;DHT22;10854;45.922;6.716;2024-03-02T03:04:02;3.30;99.90
21387;DHT22;10854;45.922;6.716;2024-03-02T03:06:33;3.30;99.90
21387;DHT22;10854;45.922;6.716;2024-03-02T03:09:01;3.30;99.90
21387;DHT22;10854;45.922;6.716;2024-03-02T03:11:30;3.40;99.90
21387;DHT22;10854;45.922;6.716;2024-03-02T03:13:58;3.30;99.90
21387;DHT22;10854;45.922;6.716;2024-03-02T03:16:29;3.30;99.90
21387;DHT22;10854;45.922;6.716;2024-03-02T03:18:57;3.30;99.90
21387;DHT22;10854;45.922;6.716;2024-03-02T03:21:26;3.30;99.90
21387;DHT22;10854;45.922;6.716;2024-03-02T03:23:55;3.40;99.90
21387;DHT22;10854;45.922;6.716;2024-03-02T03:26:23;3.40;99.90
21387;DHT22;10854;45.922;6.716;2024-03-02T03:28:52;3.40;99.90
21387;DHT22;10854;45.922;6.716;2024-03-02T03:31:20;3.40;99.90
21387;DHT22;10854;45.922;6.716;2024-03-02T03:33:49;3.30;99.90
21387;DHT22;10854;45.922;6.716;2024-03-02T03:36:17;3.30;99.90
21387;DHT22;10854;45.922;6.716;2024-03-02T03:38:48;3.20;99.90
21387;DHT22;10854;45.922;6.716;2024-03-02T03:41:18;3.10;99.90
21387;DHT22;10854;45.922;6.716;2024-03-02T03:43:46;3.00;99.90
21387;DHT22;10854;45.922;6.716;2024-03-02T03:46:15;3.10;99.90
21387;DHT22;10854;45.922;6.716;2024-03-02T03:48:43;3.10;99.90
21387;DHT22;10854;45.922;6.716;2024-03-02T03:51:12;3.20;99.90
21387;DHT22;10854;45.922;6.716;2024-03-02T03:53:41;3.10;99.90
21387;DHT22;10854;45.922;6.716;2024-03-02T03:56:09;3.00;99.90
21387;DHT22;10854;45.922;6.716;2024-03-02T03:58:38;3.00;99.90
21387;DHT22;10854;45.922;6.716;2024-03-02T04:01:07;2.90;99.90
21387;DHT22;10854;45.922;6.716;2024-03-02T04:03:38;2.90;99.90
21387;DHT22;10854;45.922;6.716;2024-03-02T04:06:06;2.90;99.90
21387;DHT22;10854;45.922;6.716;2024-03-02T04:08:35;3.00;99.90
21387;DHT22;10854;45.922;6.716;2024-03-02T04:11:03;3.10;99.90
21387;DHT22;10854;45.922;6.716;2024-03-02T04:13:32;3.20;99.90
21387;DHT22;10854;45.922;6.716;2024-03-02T04:16:01;3.20;99.90
21387;DHT22;10854;45.922;6.716;2024-03-02T04:18:29;3.10;99.90
21387;DHT22;10854;45.922;6.716;2024-03-02T04:20:59;3.10;99.90
21387;DHT22;10854;45.922;6.716;2024-03-02T04:23:28;3.10;99.90
21387;DHT22;10854;45.922;6.716;2024-03-02T04:25:56;3.10;99.90
21387;DHT22;10854;45.922;6.716;2024-03-02T04:28:25;3.20;99.90
21387;DHT22;10854;45.922;6.716;2024-03-02T04:30:53;3.30;99.90
21387;DHT22;10854;45.922;6.716;2024-03-02T04:33:22;3.30;99.90
21387;DHT22;10854;45.922;6.716;2024-03-02T04:35:50;3.40;99.90
21387;DHT22;10854;45.922;6.716;2024-03-02T04:38:19;3.30;99.90
21387;DHT22;10854;45.922;6.716;2024-03-02T04:40:47;3.30;99.90
21387;DHT22;10854;45.922;6.716;2024-03-02T04:43:16;3.30;99.90
21387;DHT22;10854;45.922;6.716;2024-03-02T04:45:46;3.30;99.90
21387;DHT22;10854;45.922;6.716;2024-03-02T04:48:15;3.30;99.90
21387;DHT22;10854;45.922;6.716;2024-03-02T04:50:43;3.30;99.90
21387;DHT22;10854;45.922;6.716;2024-03-02T04:53:12;3.30;99.90
21387;DHT22;10854;45.922;6.716;2024-03-02T04:55:40;3.30;99.90
21387;DHT22;10854;45.922;6.716;2024-03-02T04:58:09;3.40;99.90
21387;DHT22;10854;45.922;6.716;2024-03-02T05:00:39;3.40;99.90
21387;DHT22;10854;45.922;6.716;2024-03-02T05:03:07;3.40;99.90
21387;DHT22;10854;45.922;6.716;2024-03-02T05:05:36;3.50;99.90
21387;DHT22;10854;45.922;6.716;2024-03-02T05:08:05;3.60;99.90
21387;DHT22;10854;45.922;6.716;2024-03-02T05:10:34;3.60;99.90
21387;DHT22;10854;45.922;6.716;2024-03-02T05:13:04;3.60;99.90
21387;DHT22;10854;45.922;6.716;2024-03-02T05:15:33;3.70;99.90
21387;DHT22;10854;45.922;6.716;2024-03-02T05:18:01;3.70;99.90
21387;DHT22;10854;45.922;6.716;2024-03-02T05:20:33;3.70;99.90
21387;DHT22;10854;45.922;6.716;2024-03-02T05:23:01;3.70;99.90
21387;DHT22;10854;45.922;6.716;2024-03-02T05:25:31;3.70;99.90
21387;DHT22;10854;45.922;6.716;2024-03-02T05:28:01;3.60;99.90
21387;DHT22;10854;45.922;6.716;2024-03-02T05:30:31;3.50;99.90
21387;DHT22;10854;45.922;6.716;2024-03-02T05:33:00;3.50;99.90
21387;DHT22;10854;45.922;6.716;2024-03-02T05:35:30;3.50;99.90
21387;DHT22;10854;45.922;6.716;2024-03-02T05:37:58;3.50;99.90
21387;DHT22;10854;45.922;6.716;2024-03-02T05:40:27;3.40;99.90
21387;DHT22;10854;45.922;6.716;2024-03-02T05:42:56;3.50;99.90
21387;DHT22;10854;45.922;6.716;2024-03-02T05:45:25;3.50;99.90
21387;DHT22;10854;45.922;6.716;2024-03-02T05:47:57;3.50;99.90
21387;DHT22;10854;45.922;6.716;2024-03-02T05:50:27;3.60;99.90
21387;DHT22;10854;45.922;6.716;2024-03-02T05:52:55;3.60;99.90
21387;DHT22;10854;45.922;6.716;2024-03-02T05:55:24;3.70;99.90
21387;DHT22;10854;45.922;6.716;2024-03-02T05:57:53;3.60;99.90
21387;DHT22;10854;45.922;6.716;2024-03-02T06:00:34;3.40;99.90
21387;DHT22;10854;45.922;6.716;2024-03-02T06:03:03;3.30;99.90
21387;DHT22;10854;45.922;6.716;2024-03-02T06:05:34;3.10;99.90
21387;DHT22;10854;45.922;6.716;2024-03-02T06:08:03;3.00;99.90
21387;DHT22;10854;45.922;6.716;2024-03-02T06:10:32;2.90;99.90
21387;DHT22;10854;45.922;6.716;2024-03-02T06:13:00;2.80;99.90
21387;DHT22;10854;45.922;6.716;2024-03-02T06:15:29;2.80;99.90
21387;DHT22;10854;45.922;6.716;2024-03-02T06:17:59;2.80;99.90
21387;DHT22;10854;45.922;6.716;2024-03-02T06:20:28;2.90;99.90
21387;DHT22;10854;45.922;6.716;2024-03-02T06:23:03;3.00;99.90
21387;DHT22;10854;45.922;6.716;2024-03-02T06:25:32;3.10;99.90
21387;DHT22;10854;45.922;6.716;2024-03-02T06:28:02;3.10;99.90
21387;DHT22;10854;45.922;6.716;2024-03-02T06:30:32;3.30;99.90
21387;DHT22;10854;45.922;6.716;2024-03-02T06:33:02;3.40;99.90
21387;DHT22;10854;45.922;6.716;2024-03-02T06:35:32;3.40;99.90
21387;DHT22;10854;45.922;6.716;2024-03-02T06:38:02;3.50;99.90
21387;DHT22;10854;45.922;6.716;2024-03-02T06:40:30;3.60;99.90
21387;DHT22;10854;45.922;6.716;2024-03-02T06:42:59;3.60;99.90
21387;DHT22;10854;45.922;6.716;2024-03-02T06:45:28;3.70;99.90
21387;DHT22;10854;45.922;6.716;2024-03-02T06:47:58;3.80;99.90
21387;DHT22;10854;45.922;6.716;2024-03-02T06:50:27;3.90;99.90
21387;DHT22;10854;45.922;6.716;2024-03-02T06:52:56;4.00;99.90
21387;DHT22;10854;45.922;6.716;2024-03-02T06:55:25;4.10;99.90
21387;DHT22;10854;45.922;6.716;2024-03-02T06:57:54;4.20;99.90
21387;DHT22;10854;45.922;6.716;2024-03-02T07:00:22;4.20;99.90
21387;DHT22;10854;45.922;6.716;2024-03-02T07:02:52;4.20;99.90
21387;DHT22;10854;45.922;6.716;2024-03-02T07:05:20;4.20;99.90
21387;DHT22;10854;45.922;6.716;2024-03-02T07:07:49;4.10;99.90
21387;DHT22;10854;45.922;6.716;2024-03-02T07:10:17;4.10;99.90
21387;DHT22;10854;45.922;6.716;2024-03-02T07:12:46;4.20;99.90
21387;DHT22;10854;45.922;6.716;2024-03-02T07:15:16;4.20;99.90
21387;DHT22;10854;45.922;6.716;2024-03-02T07:17:58;4.30;99.90
21387;DHT22;10854;45.922;6.716;2024-03-02T07:20:26;4.30;99.90
21387;DHT22;10854;45.922;6.716;2024-03-02T07:22:55;4.30;99.90
21387;DHT22;10854;45.922;6.716;2024-03-02T07:25:23;4.30;99.90
21387;DHT22;10854;45.922;6.716;2024-03-02T07:27:55;4.30;99.90
21387;DHT22;10854;45.922;6.716;2024-03-02T07:30:24;4.20;99.90
21387;DHT22;10854;45.922;6.716;2024-03-02T07:32:53;4.20;99.90
21387;DHT22;10854;45.922;6.716;2024-03-02T07:35:21;4.20;99.90
21387;DHT22;10854;45.922;6.716;2024-03-02T07:37:54;4.30;99.90
21387;DHT22;10854;45.922;6.716;2024-03-02T07:40:23;4.40;99.90
21387;DHT22;10854;45.922;6.716;2024-03-02T07:42:52;4.50;99.90
21387;DHT22;10854;45.922;6.716;2024-03-02T07:45:20;4.60;99.90
21387;DHT22;10854;45.922;6.716;2024-03-02T07:47:49;4.60;99.90
21387;DHT22;10854;45.922;6.716;2024-03-02T07:50:18;4.60;99.90
21387;DHT22;10854;45.922;6.716;2024-03-02T07:52:47;4.60;99.90
21387;DHT22;10854;45.922;6.716;2024-03-02T07:55:15;4.60;99.90
21387;DHT22;10854;45.922;6.716;2024-03-02T07:57:45;4.60;99.90
21387;DHT22;10854;45.922;6.716;2024-03-02T08:00:13;4.60;99.90
21387;DHT22;10854;45.922;6.716;2024-03-02T08:02:42;4.70;99.90
21387;DHT22;10854;45.922;6.716;2024-03-02T08:05:12;4.80;99.90
21387;DHT22;10854;45.922;6.716;2024-03-02T08:07:41;4.90;99.90
21387;DHT22;10854;45.922;6.716;2024-03-02T08:10:09;5.00;99.90
21387;DHT22;10854;45.922;6.716;2024-03-02T08:12:38;5.10;99.90
21387;DHT22;10854;45.922;6.716;2024-03-02T08:15:07;5.30;99.90
21387;DHT22;10854;45.922;6.716;2024-03-02T08:17:35;5.40;99.90
21387;DHT22;10854;45.922;6.716;2024-03-02T08:20:05;5.50;99.90
21387;DHT22;10854;45.922;6.716;2024-03-02T08:22:33;5.60;99.90
21387;DHT22;10854;45.922;6.716;2024-03-02T08:25:03;5.80;99.90
21387;DHT22;10854;45.922;6.716;2024-03-02T08:27:32;5.90;99.90
21387;DHT22;10854;45.922;6.716;2024-03-02T08:30:01;6.10;99.90
21387;DHT22;10854;45.922;6.716;2024-03-02T08:32:31;6.10;99.90
21387;DHT22;10854;45.922;6.716;2024-03-02T08:35:00;6.20;99.90
21387;DHT22;10854;45.922;6.716;2024-03-02T08:37:28;6.30;99.90
21387;DHT22;10854;45.922;6.716;2024-03-02T08:39:57;6.30;99.90
21387;DHT22;10854;45.922;6.716;2024-03-02T08:42:25;6.40;99.90
21387;DHT22;10854;45.922;6.716;2024-03-02T08:44:54;6.50;99.90
21387;DHT22;10854;45.922;6.716;2024-03-02T08:47:22;6.60;99.90
21387;DHT22;10854;45.922;6.716;2024-03-02T08:49:51;6.80;99.90
21387;DHT22;10854;45.922;6.716;2024-03-02T08:52:19;7.10;99.90
21387;DHT22;10854;45.922;6.716;2024-03-02T08:54:48;7.50;99.90
21387;DHT22;10854;45.922;6.716;2024-03-02T08:57:17;7.90;99.90
21387;DHT22;10854;45.922;6.716;2024-03-02T08:59:46;8.10;99.90
21387;DHT22;10854;45.922;6.716;2024-03-02T09:02:15;8.30;99.90
21387;DHT22;10854;45.922;6.716;2024-03-02T09:04:43;8.50;99.90
21387;DHT22;10854;45.922;6.716;2024-03-02T09:07:13;8.70;99.90
21387;DHT22;10854;45.922;6.716;2024-03-02T09:09:42;8.90;99.90
21387;DHT22;10854;45.922;6.716;2024-03-02T09:12:10;9.20;99.70
21387;DHT22;10854;45.922;6.716;2024-03-02T09:14:40;9.60;98.50
21387;DHT22;10854;45.922;6.716;2024-03-02T09:17:09;10.10;96.50
21387;DHT22;10854;45.922;6.716;2024-03-02T09:19:39;10.50;94.10
21387;DHT22;10854;45.922;6.716;2024-03-02T09:22:08;10.80;92.30
21387;DHT22;10854;45.922;6.716;2024-03-02T09:24:37;11.10;91.00
21387;DHT22;10854;45.922;6.716;2024-03-02T09:27:06;11.30;89.20
21387;DHT22;10854;45.922;6.716;2024-03-02T09:29:34;11.50;88.20
21387;DHT22;10854;45.922;6.716;2024-03-02T09:32:04;11.90;87.10
21387;DHT22;10854;45.922;6.716;2024-03-02T09:34:33;12.20;83.40
21387;DHT22;10854;45.922;6.716;2024-03-02T09:37:02;12.50;82.00
21387;DHT22;10854;45.922;6.716;2024-03-02T09:39:32;12.70;80.00
21387;DHT22;10854;45.922;6.716;2024-03-02T09:42:03;12.80;77.60
21387;DHT22;10854;45.922;6.716;2024-03-02T09:44:33;12.80;75.80
21387;DHT22;10854;45.922;6.716;2024-03-02T09:47:02;13.00;75.60
21387;DHT22;10854;45.922;6.716;2024-03-02T09:49:30;13.00;74.10
21387;DHT22;10854;45.922;6.716;2024-03-02T09:51:59;13.10;73.30
21387;DHT22;10854;45.922;6.716;2024-03-02T09:54:28;13.10;72.10
21387;DHT22;10854;45.922;6.716;2024-03-02T09:56:56;13.20;71.00
21387;DHT22;10854;45.922;6.716;2024-03-02T09:59:26;13.30;71.00
21387;DHT22;10854;45.922;6.716;2024-03-02T10:02:02;13.60;70.30
21387;DHT22;10854;45.922;6.716;2024-03-02T10:04:30;13.90;70.00
21387;DHT22;10854;45.922;6.716;2024-03-02T10:07:12;14.10;69.20
21387;DHT22;10854;45.922;6.716;2024-03-02T10:09:45;14.40;67.70
21387;DHT22;10854;45.922;6.716;2024-03-02T10:12:17;14.60;66.30
21387;DHT22;10854;45.922;6.716;2024-03-02T10:14:46;14.70;66.40
21387;DHT22;10854;45.922;6.716;2024-03-02T10:17:17;14.80;65.80
21387;DHT22;10854;45.922;6.716;2024-03-02T10:19:47;14.90;65.50
21387;DHT22;10854;45.922;6.716;2024-03-02T10:22:16;15.00;65.90
21387;DHT22;10854;45.922;6.716;2024-03-02T10:24:46;15.10;65.20
21387;DHT22;10854;45.922;6.716;2024-03-02T10:27:27;15.20;64.10
21387;DHT22;10854;45.922;6.716;2024-03-02T10:29:57;15.30;63.10
21387;DHT22;10854;45.922;6.716;2024-03-02T10:32:26;15.60;63.30
21387;DHT22;10854;45.922;6.716;2024-03-02T10:34:56;15.70;62.00
21387;DHT22;10854;45.922;6.716;2024-03-02T10:37:25;15.90;59.90
21387;DHT22;10854;45.922;6.716;2024-03-02T10:39:57;16.10;59.60
21387;DHT22;10854;45.922;6.716;2024-03-02T10:42:28;16.30;59.20
21387;DHT22;10854;45.922;6.716;2024-03-02T10:44:59;16.40;58.70
21387;DHT22;10854;45.922;6.716;2024-03-02T10:47:29;16.50;57.90
21387;DHT22;10854;45.922;6.716;2024-03-02T10:50:01;16.60;57.90
21387;DHT22;10854;45.922;6.716;2024-03-02T10:52:31;16.70;57.40
21387;DHT22;10854;45.922;6.716;2024-03-02T10:55:00;16.90;56.60
21387;DHT22;10854;45.922;6.716;2024-03-02T10:57:36;17.00;55.80
21387;DHT22;10854;45.922;6.716;2024-03-02T11:00:12;16.90;52.60
21387;DHT22;10854;45.922;6.716;2024-03-02T11:02:50;16.70;53.80
21387;DHT22;10854;45.922;6.716;2024-03-02T11:05:29;16.40;52.80
21387;DHT22;10854;45.922;6.716;2024-03-02T11:08:07;16.20;53.50
21387;DHT22;10854;45.922;6.716;2024-03-02T11:10:42;16.00;53.20
21387;DHT22;10854;45.922;6.716;2024-03-02T11:13:22;15.90;53.20
21387;DHT22;10854;45.922;6.716;2024-03-02T11:15:55;16.00;53.70
21387;DHT22;10854;45.922;6.716;2024-03-02T11:18:27;15.90;53.50
21387;DHT22;10854;45.922;6.716;2024-03-02T11:20:57;15.90;54.00
21387;DHT22;10854;45.922;6.716;2024-03-02T11:23:34;16.00;54.00
21387;DHT22;10854;45.922;6.716;2024-03-02T11:26:19;16.10;53.90
21387;DHT22;10854;45.922;6.716;2024-03-02T11:28:50;16.20;52.90
21387;DHT22;10854;45.922;6.716;2024-03-02T11:31:20;16.30;53.20
21387;DHT22;10854;45.922;6.716;2024-03-02T11:33:50;16.40;53.40
21387;DHT22;10854;45.922;6.716;2024-03-02T11:36:18;16.50;53.80
21387;DHT22;10854;45.922;6.716;2024-03-02T11:38:49;16.60;54.20
21387;DHT22;10854;45.922;6.716;2024-03-02T11:41:24;16.80;54.00
21387;DHT22;10854;45.922;6.716;2024-03-02T11:43:54;16.80;53.10
21387;DHT22;10854;45.922;6.716;2024-03-02T11:46:23;17.00;53.30
21387;DHT22;10854;45.922;6.716;2024-03-02T11:48:51;17.00;51.30
21387;DHT22;10854;45.922;6.716;2024-03-02T11:51:22;16.90;50.10
21387;DHT22;10854;45.922;6.716;2024-03-02T11:53:51;16.60;48.90
21387;DHT22;10854;45.922;6.716;2024-03-02T11:56:22;16.40;49.00
21387;DHT22;10854;45.922;6.716;2024-03-02T11:58:54;16.20;49.50
21387;DHT22;10854;45.922;6.716;2024-03-02T12:01:23;16.10;49.80
21387;DHT22;10854;45.922;6.716;2024-03-02T12:03:51;16.00;50.10
21387;DHT22;10854;45.922;6.716;2024-03-02T12:06:24;16.00;49.70
21387;DHT22;10854;45.922;6.716;2024-03-02T12:08:53;16.00;49.70
21387;DHT22;10854;45.922;6.716;2024-03-02T12:11:23;16.10;50.20
21387;DHT22;10854;45.922;6.716;2024-03-02T12:13:54;16.30;50.30
21387;DHT22;10854;45.922;6.716;2024-03-02T12:16:24;16.50;48.40
21387;DHT22;10854;45.922;6.716;2024-03-02T12:18:52;16.70;47.90
21387;DHT22;10854;45.922;6.716;2024-03-02T12:21:21;16.70;46.20
21387;DHT22;10854;45.922;6.716;2024-03-02T12:23:50;16.80;45.50
21387;DHT22;10854;45.922;6.716;2024-03-02T12:26:18;16.80;45.50
21387;DHT22;10854;45.922;6.716;2024-03-02T12:28:47;17.00;44.80
21387;DHT22;10854;45.922;6.716;2024-03-02T12:31:16;17.10;44.40
21387;DHT22;10854;45.922;6.716;2024-03-02T12:33:45;17.20;45.30
21387;DHT22;10854;45.922;6.716;2024-03-02T12:36:14;17.40;44.60
21387;DHT22;10854;45.922;6.716;2024-03-02T12:38:47;17.60;43.60
21387;DHT22;10854;45.922;6.716;2024-03-02T12:41:16;17.80;43.80
21387;DHT22;10854;45.922;6.716;2024-03-02T12:43:45;18.20;44.10
21387;DHT22;10854;45.922;6.716;2024-03-02T12:46:13;18.60;44.70
21387;DHT22;10854;45.922;6.716;2024-03-02T12:48:42;19.00;46.00
21387;DHT22;10854;45.922;6.716;2024-03-02T12:51:11;19.40;44.20
21387;DHT22;10854;45.922;6.716;2024-03-02T12:53:40;19.40;43.50
21387;DHT22;10854;45.922;6.716;2024-03-02T12:56:08;19.30;42.30
21387;DHT22;10854;45.922;6.716;2024-03-02T12:58:40;19.20;42.60
21387;DHT22;10854;45.922;6.716;2024-03-02T13:01:14;19.20;42.70
21387;DHT22;10854;45.922;6.716;2024-03-02T13:03:43;19.30;43.70
21387;DHT22;10854;45.922;6.716;2024-03-02T13:06:14;19.60;43.90
21387;DHT22;10854;45.922;6.716;2024-03-02T13:08:45;20.00;43.40
21387;DHT22;10854;45.922;6.716;2024-03-02T13:11:17;20.30;41.60
21387;DHT22;10854;45.922;6.716;2024-03-02T13:13:45;20.40;40.60
21387;DHT22;10854;45.922;6.716;2024-03-02T13:16:15;20.40;40.90
21387;DHT22;10854;45.922;6.716;2024-03-02T13:18:44;20.70;40.80
21387;DHT22;10854;45.922;6.716;2024-03-02T13:21:13;20.90;41.10
21387;DHT22;10854;45.922;6.716;2024-03-02T13:23:42;21.00;41.80
21387;DHT22;10854;45.922;6.716;2024-03-02T13:26:11;21.20;42.80
21387;DHT22;10854;45.922;6.716;2024-03-02T13:28:40;21.40;43.00
21387;DHT22;10854;45.922;6.716;2024-03-02T13:31:09;21.70;42.90
21387;DHT22;10854;45.922;6.716;2024-03-02T13:33:38;22.00;42.50
21387;DHT22;10854;45.922;6.716;2024-03-02T13:36:07;22.40;42.80
21387;DHT22;10854;45.922;6.716;2024-03-02T13:38:37;23.20;43.20
21387;DHT22;10854;45.922;6.716;2024-03-02T13:41:05;24.00;41.70
21387;DHT22;10854;45.922;6.716;2024-03-02T13:43:34;24.20;40.40
21387;DHT22;10854;45.922;6.716;2024-03-02T13:46:03;23.80;40.30
21387;DHT22;10854;45.922;6.716;2024-03-02T13:48:33;23.40;39.80
21387;DHT22;10854;45.922;6.716;2024-03-02T13:51:02;22.90;39.10
21387;DHT22;10854;45.922;6.716;2024-03-02T13:53:32;22.70;38.80
21387;DHT22;10854;45.922;6.716;2024-03-02T13:56:00;22.30;38.50
21387;DHT22;10854;45.922;6.716;2024-03-02T13:58:29;21.90;38.60
21387;DHT22;10854;45.922;6.716;2024-03-02T14:00:57;21.50;38.50
21387;DHT22;10854;45.922;6.716;2024-03-02T14:03:26;21.00;38.50
21387;DHT22;10854;45.922;6.716;2024-03-02T14:05:58;20.80;39.20
21387;DHT22;10854;45.922;6.716;2024-03-02T14:08:26;20.70;38.60
21387;DHT22;10854;45.922;6.716;2024-03-02T14:10:55;20.60;38.40
21387;DHT22;10854;45.922;6.716;2024-03-02T14:13:26;20.40;38.00
21387;DHT22;10854;45.922;6.716;2024-03-02T14:15:55;20.40;38.50
21387;DHT22;10854;45.922;6.716;2024-03-02T14:18:23;20.50;39.30
21387;DHT22;10854;45.922;6.716;2024-03-02T14:20:52;20.30;39.30
21387;DHT22;10854;45.922;6.716;2024-03-02T14:23:21;20.20;39.70
21387;DHT22;10854;45.922;6.716;2024-03-02T14:25:50;20.00;39.30
21387;DHT22;10854;45.922;6.716;2024-03-02T14:28:20;19.70;39.40
21387;DHT22;10854;45.922;6.716;2024-03-02T14:30:52;19.60;40.10
21387;DHT22;10854;45.922;6.716;2024-03-02T14:33:22;19.40;40.20
21387;DHT22;10854;45.922;6.716;2024-03-02T14:35:51;19.40;40.50
21387;DHT22;10854;45.922;6.716;2024-03-02T14:38:20;19.30;40.40
21387;DHT22;10854;45.922;6.716;2024-03-02T14:40:50;19.20;40.50
21387;DHT22;10854;45.922;6.716;2024-03-02T14:43:19;19.20;40.70
21387;DHT22;10854;45.922;6.716;2024-03-02T14:45:48;19.00;41.00
21387;DHT22;10854;45.922;6.716;2024-03-02T14:48:17;19.00;41.60
21387;DHT22;10854;45.922;6.716;2024-03-02T14:50:45;18.90;42.20
21387;DHT22;10854;45.922;6.716;2024-03-02T14:53:14;18.80;42.80
21387;DHT22;10854;45.922;6.716;2024-03-02T14:55:43;18.70;42.70
21387;DHT22;10854;45.922;6.716;2024-03-02T14:58:11;18.50;42.80
21387;DHT22;10854;45.922;6.716;2024-03-02T15:00:40;18.30;42.80
21387;DHT22;10854;45.922;6.716;2024-03-02T15:03:09;18.00;43.10
21387;DHT22;10854;45.922;6.716;2024-03-02T15:05:41;17.80;43.80
21387;DHT22;10854;45.922;6.716;2024-03-02T15:08:10;17.60;44.40
21387;DHT22;10854;45.922;6.716;2024-03-02T15:10:38;17.50;44.70
21387;DHT22;10854;45.922;6.716;2024-03-02T15:13:07;17.30;44.80
21387;DHT22;10854;45.922;6.716;2024-03-02T15:15:36;17.10;43.80
21387;DHT22;10854;45.922;6.716;2024-03-02T15:18:12;16.90;43.60
21387;DHT22;10854;45.922;6.716;2024-03-02T15:20:40;16.70;44.60
21387;DHT22;10854;45.922;6.716;2024-03-02T15:23:10;16.60;45.70
21387;DHT22;10854;45.922;6.716;2024-03-02T15:25:39;16.50;46.10
21387;DHT22;10854;45.922;6.716;2024-03-02T15:28:08;16.30;46.60
21387;DHT22;10854;45.922;6.716;2024-03-02T15:30:36;16.20;47.20
21387;DHT22;10854;45.922;6.716;2024-03-02T15:33:06;16.10;47.70
21387;DHT22;10854;45.922;6.716;2024-03-02T15:35:34;16.00;48.00
21387;DHT22;10854;45.922;6.716;2024-03-02T15:38:03;15.90;47.40
21387;DHT22;10854;45.922;6.716;2024-03-02T15:40:34;15.80;47.30
21387;DHT22;10854;45.922;6.716;2024-03-02T15:43:02;15.70;47.70
21387;DHT22;10854;45.922;6.716;2024-03-02T15:45:31;15.70;48.50
21387;DHT22;10854;45.922;6.716;2024-03-02T15:48:01;15.50;48.90
21387;DHT22;10854;45.922;6.716;2024-03-02T15:50:31;15.50;50.10
21387;DHT22;10854;45.922;6.716;2024-03-02T15:53:00;15.30;51.90
21387;DHT22;10854;45.922;6.716;2024-03-02T15:55:32;15.20;53.00